createdAt,value
2023-02-02T00:01:58.333Z,100006.31
2023-02-02T00:06:05.814Z,100004.91
2023-02-02T00:10:10.094Z,100005.31
2023-02-02T00:14:13.964Z,100004.91
2023-02-02T00:18:19.654Z,99990.97
2023-02-02T00:22:24.687Z,100001.28
2023-02-02T00:26:29.460Z,100009.34
2023-02-02T00:30:33.229Z,99997.03
2023-02-02T00:34:36.664Z,100010.34
2023-02-02T00:38:41.966Z,100000.25
2023-02-02T00:42:49.358Z,100015.22
2023-02-02T00:46:53.213Z,99989.13
2023-02-02T00:51:02.401Z,100013.38
2023-02-02T00:55:08.583Z,100020.28
2023-02-02T00:59:11.990Z,100026.53
2023-02-02T01:03:20.913Z,100022.84
2023-02-02T01:07:24.590Z,100010.78
2023-02-02T01:11:31.135Z,100022.47
2023-02-02T01:15:34.616Z,100035.19
2023-02-02T01:19:38.212Z,100024.91
2023-02-02T01:23:41.899Z,100024.91
2023-02-02T01:27:50.063Z,100022.06
2023-02-02T01:31:57.548Z,100019.44
2023-02-02T01:36:06.665Z,100026.94
2023-02-02T01:40:11.725Z,100011.75
2023-02-02T01:45:05.207Z,100021.47
2023-02-02T01:49:14.988Z,100022.69
2023-02-02T01:53:20.106Z,100029.78
2023-02-02T01:57:29.230Z,100022.72
2023-02-02T02:01:34.381Z,100015.63
2023-02-02T02:05:45.851Z,100016.66
2023-02-02T02:09:49.823Z,100014.59
2023-02-02T02:14:17.114Z,100012.78
2023-02-02T02:18:33.342Z,100006.53
2023-02-02T02:23:19.363Z,100024.53
2023-02-02T02:27:37.576Z,100013.81
2023-02-02T02:32:08.460Z,100019.47
2023-02-02T02:36:17.101Z,100021.69
2023-02-02T02:40:26.216Z,100017.59
2023-02-02T02:44:31.213Z,100025.94
2023-02-02T02:48:36.215Z,99998.78
2023-02-02T02:52:40.053Z,100025.09
2023-02-02T02:56:58.177Z,100007.50
2023-02-02T03:01:07.857Z,100032.56
2023-02-02T03:05:22.954Z,100047.34
2023-02-02T03:09:32.944Z,100043.47
2023-02-02T03:13:36.110Z,100032.56
2023-02-02T03:17:39.887Z,100031.56
2023-02-02T03:21:44.786Z,100022.47
2023-02-02T03:25:48.458Z,100026.34
2023-02-02T03:29:51.987Z,100027.56
2023-02-02T03:33:55.584Z,100026.72
2023-02-02T03:38:00.284Z,100027.34
2023-02-02T03:42:03.697Z,100030.41
2023-02-02T03:46:08.524Z,100009.56
2023-02-02T03:50:12.955Z,100028.38
2023-02-02T03:54:18.007Z,100036.66
2023-02-02T03:58:22.585Z,100037.28
2023-02-02T04:02:26.260Z,100046.94
2023-02-02T04:06:30.750Z,100043.53
2023-02-02T04:10:35.911Z,100047.31
2023-02-02T04:14:39.674Z,100047.94
2023-02-02T04:18:42.840Z,100042.47
2023-02-02T04:22:46.369Z,100045.94
2023-02-02T04:26:51.395Z,100033.56
2023-02-02T04:30:56.055Z,100044.94
2023-02-02T04:34:59.689Z,100026.91
2023-02-02T04:39:03.433Z,100031.78
2023-02-02T04:43:08.518Z,100033.41
2023-02-02T04:47:14.717Z,100033.81
2023-02-02T04:51:24.383Z,100043.72
2023-02-02T04:55:27.933Z,100006.31
2023-02-02T04:59:33.386Z,100035.44
2023-02-02T05:03:36.725Z,100040.91
2023-02-02T05:07:41.039Z,100056.66
2023-02-02T05:11:45.414Z,100057.91
2023-02-02T05:15:50.797Z,100050.56
2023-02-02T05:19:55.313Z,100073.25
2023-02-02T05:23:59.971Z,100081.06
2023-02-02T05:28:03.663Z,100070.78
2023-02-02T05:32:11.088Z,100082.75
2023-02-02T05:36:14.952Z,100083.53
2023-02-02T05:40:19.010Z,100086.56
2023-02-02T05:44:22.202Z,100082.75
2023-02-02T05:48:27.858Z,100091.03
2023-02-02T05:52:34.612Z,100098.25
2023-02-02T05:56:38.293Z,100113.03
2023-02-02T06:00:41.754Z,100116.28
2023-02-02T06:04:47.711Z,100124.94
2023-02-02T06:08:51.153Z,100135.66
2023-02-02T06:12:54.767Z,100140.31
2023-02-02T06:16:58.664Z,100138.31
2023-02-02T06:21:05.057Z,100146.63
2023-02-02T06:25:10.334Z,100092.75
2023-02-02T06:29:14.272Z,100121.53
2023-02-02T06:33:18.140Z,100132.88
2023-02-02T06:37:30.821Z,100134.50
2023-02-02T06:41:34.284Z,100139.50
2023-02-02T06:45:40.407Z,100139.75
2023-02-02T06:49:43.321Z,100135.50
2023-02-02T06:53:48.513Z,100089.94
2023-02-02T06:57:57.699Z,100124.56
2023-02-02T07:02:00.796Z,100131.03
2023-02-02T07:06:13.118Z,100113.84
2023-02-02T07:11:11.546Z,100122.38
2023-02-02T07:14:41.928Z,100125.16
2023-02-02T07:18:45.366Z,100112.03
2023-02-02T07:22:48.653Z,100117.53
2023-02-02T07:26:53.016Z,100099.66
2023-02-02T07:30:56.103Z,100131.63
2023-02-02T07:34:59.196Z,100131.81
2023-02-02T07:39:04.778Z,100155.88
2023-02-02T07:43:09.344Z,100168.03
2023-02-02T07:47:12.143Z,100155.25
2023-02-02T07:51:16.251Z,100177.13
2023-02-02T07:55:19.301Z,100183.38
2023-02-02T07:59:23.835Z,100197.75
2023-02-02T08:03:26.875Z,100202.16
2023-02-02T08:07:32.304Z,100212.28
2023-02-02T08:11:35.798Z,100206.78
2023-02-02T08:15:40.148Z,100212.13
2023-02-02T08:19:43.125Z,100213.13
2023-02-02T08:23:46.790Z,100218.56
2023-02-02T08:27:49.591Z,100197.91
2023-02-02T08:31:54.671Z,100215.53
2023-02-02T08:35:57.513Z,100208.66
2023-02-02T08:40:00.540Z,100215.31
2023-02-02T08:44:06.782Z,100214.94
2023-02-02T08:48:12.856Z,100221.41
2023-02-02T08:52:15.949Z,100206.66
2023-02-02T08:56:20.533Z,100197.50
2023-02-02T09:00:23.900Z,100189.56
2023-02-02T09:04:28.101Z,100220.63
2023-02-02T09:08:31.795Z,100209.13
2023-02-02T09:12:34.797Z,100214.81
2023-02-02T09:16:37.982Z,100193.31
2023-02-02T09:20:43.575Z,100195.75
2023-02-02T09:24:46.559Z,100229.06
2023-02-02T09:28:51.757Z,100233.38
2023-02-02T09:32:54.521Z,100242.22
2023-02-02T09:37:05.675Z,100221.53
2023-02-02T09:41:35.213Z,100236.31
2023-02-02T09:45:43.942Z,100213.03
2023-02-02T09:49:54.212Z,100257.59
2023-02-02T09:54:01.132Z,100257.97
2023-02-02T09:58:08.464Z,100272.31
2023-02-02T10:02:16.986Z,100247.34
2023-02-02T10:06:28.311Z,100256.66
2023-02-02T10:10:36.585Z,100258.72
2023-02-02T10:14:46.260Z,100256.88
2023-02-02T10:18:53.087Z,100278.00
2023-02-02T10:22:58.128Z,100247.56
2023-02-02T10:27:06.138Z,100277.97
2023-02-02T10:31:17.129Z,100296.44
2023-02-02T10:35:37.259Z,100292.38
2023-02-02T10:39:52.384Z,100308.53
2023-02-02T10:44:04.652Z,100293.75
2023-02-02T10:48:15.007Z,100274.66
2023-02-02T10:52:19.863Z,100311.28
2023-02-02T10:56:27.796Z,100315.97
2023-02-02T11:00:36.435Z,100310.72
2023-02-02T11:04:56.758Z,100299.47
2023-02-02T11:09:01.016Z,100313.00
2023-02-02T11:13:03.927Z,100305.75
2023-02-02T11:17:18.212Z,100311.41
2023-02-02T11:21:23.540Z,100320.56
2023-02-02T11:25:29.354Z,100315.31
2023-02-02T11:29:37.303Z,100316.09
2023-02-02T11:33:41.828Z,100309.28
2023-02-02T11:38:01.236Z,100308.69
2023-02-02T11:42:07.542Z,100308.47
2023-02-02T11:46:19.210Z,100307.88
2023-02-02T11:50:30.023Z,100300.19
2023-02-02T11:54:38.699Z,100288.66
2023-02-02T11:58:46.222Z,100289.84
2023-02-02T12:02:50.263Z,100286.00
2023-02-02T12:06:54.837Z,100286.84
2023-02-02T12:11:01.912Z,100288.25
2023-02-02T12:15:13.258Z,100284.59
2023-02-02T12:19:29.501Z,100291.66
2023-02-02T12:23:44.399Z,100296.75
2023-02-02T12:27:54.554Z,100297.53
2023-02-02T12:32:16.427Z,100277.88
2023-02-02T12:36:27.512Z,100277.09
2023-02-02T12:40:48.419Z,100266.38
2023-02-02T12:45:02.886Z,100272.63
2023-02-02T12:49:24.384Z,100281.97
2023-02-02T12:53:39.860Z,100272.44
2023-02-02T12:57:51.920Z,100268.59
2023-02-02T13:02:03.621Z,100280.13
2023-02-02T13:06:18.359Z,100291.69
2023-02-02T13:10:26.372Z,100268.41
2023-02-02T13:14:38.704Z,100272.66
2023-02-02T13:18:43.953Z,100267.59
2023-02-02T13:22:49.155Z,100266.34
2023-02-02T13:26:52.453Z,100263.13
2023-02-02T13:30:59.138Z,100258.88
2023-02-02T13:35:05.482Z,100269.63
2023-02-02T13:39:16.299Z,100273.44
2023-02-02T13:43:38.833Z,100269.19
2023-02-02T13:47:49.963Z,100270.22
2023-02-02T13:52:18.855Z,100269.41
2023-02-02T13:56:35.366Z,100270.59
2023-02-02T14:00:38.442Z,100271.22
2023-02-02T14:04:43.572Z,100274.84
2023-02-02T14:08:49.448Z,100280.50
2023-02-02T14:12:52.642Z,100285.16
2023-02-02T14:16:56.808Z,100282.91
2023-02-02T14:21:01.498Z,100265.50
2023-02-02T14:25:05.699Z,100279.03
2023-02-02T14:29:37.120Z,100286.13
2023-02-02T14:33:47.772Z,100305.34
2023-02-02T14:38:04.719Z,100304.50
2023-02-02T14:42:37.153Z,100304.50
2023-02-02T14:46:40.932Z,100318.50
2023-02-02T14:50:47.264Z,100322.34
2023-02-02T14:54:51.910Z,100331.25
2023-02-02T14:58:56.494Z,100329.19
2023-02-02T15:03:29.280Z,100339.09
2023-02-02T15:07:52.823Z,100345.31
2023-02-02T15:12:20.081Z,100350.59
2023-02-02T15:16:26.958Z,100363.69
2023-02-02T15:20:31.428Z,100363.06
2023-02-02T15:24:36.524Z,100352.75
2023-02-02T15:28:44.447Z,100370.34
2023-02-02T15:32:48.666Z,100371.53
2023-02-02T15:36:54.230Z,100374.59
2023-02-02T15:40:57.295Z,100388.75
2023-02-02T15:45:01.582Z,100384.47
2023-02-02T15:49:36.294Z,100374.53
2023-02-02T15:53:49.165Z,100387.00
2023-02-02T15:57:54.295Z,100403.59
2023-02-02T16:02:06.463Z,100402.13
2023-02-02T16:06:10.060Z,100404.94
2023-02-02T16:10:20.093Z,100414.88
2023-02-02T16:14:23.792Z,100418.25
2023-02-02T16:18:28.268Z,100421.47
2023-02-02T16:22:32.044Z,100410.41
2023-02-02T16:26:36.073Z,100429.69
2023-02-02T16:30:39.951Z,100436.22
2023-02-02T16:34:47.560Z,100439.00
2023-02-02T16:38:53.365Z,100450.97
2023-02-02T16:43:05.730Z,100457.22
2023-02-02T16:47:09.840Z,100465.69
2023-02-02T16:51:28.300Z,100472.34
2023-02-02T16:55:48.860Z,100456.97
2023-02-02T16:59:54.335Z,100470.09
2023-02-02T17:04:00.312Z,100439.59
2023-02-02T17:08:08.099Z,100467.47
2023-02-02T17:12:33.590Z,100462.13
2023-02-02T17:16:37.502Z,100482.63
2023-02-02T17:20:41.716Z,100481.63
2023-02-02T17:24:48.702Z,100461.13
2023-02-02T17:28:56.841Z,100481.06
2023-02-02T17:33:00.177Z,100480.19
2023-02-02T17:37:03.387Z,100474.13
2023-02-02T17:41:08.645Z,100479.00
2023-02-02T17:45:15.774Z,100477.66
2023-02-02T17:49:20.470Z,100480.28
2023-02-02T17:53:24.296Z,100498.06
2023-02-02T17:57:29.023Z,100493.38
2023-02-02T18:01:32.835Z,100487.69
2023-02-02T18:05:35.938Z,100513.63
2023-02-02T18:09:41.575Z,100507.19
2023-02-02T18:13:52.560Z,100506.38
2023-02-02T18:17:56.781Z,100490.88
2023-02-02T18:21:59.637Z,100506.66
2023-02-02T18:26:10.380Z,100510.34
2023-02-02T18:30:15.950Z,100505.44
2023-02-02T18:34:19.679Z,100507.91
2023-02-02T18:38:24.161Z,100515.22
2023-02-02T18:42:30.273Z,100501.13
2023-02-02T18:46:35.238Z,100514.59
2023-02-02T18:50:38.783Z,100519.00
2023-02-02T18:54:41.755Z,100519.00
2023-02-02T18:58:45.408Z,100518.59
2023-02-02T19:02:50.045Z,100518.94
2023-02-02T19:07:11.028Z,100509.25
2023-02-02T19:11:17.677Z,100510.38
2023-02-02T19:15:21.250Z,100506.13
2023-02-02T19:19:29.355Z,100503.88
2023-02-02T19:23:33.492Z,100500.38
2023-02-02T19:27:36.407Z,100507.34
2023-02-02T19:31:40.437Z,100510.38
2023-02-02T19:35:46.744Z,100514.84
2023-02-02T19:39:50.404Z,100503.16
2023-02-02T19:43:58.665Z,100513.00
2023-02-02T19:48:04.081Z,100506.41
2023-02-02T19:52:18.574Z,100517.63
2023-02-02T19:56:25.556Z,100522.38
2023-02-02T20:00:30.966Z,100522.72
2023-02-02T20:04:35.110Z,100522.53
2023-02-02T20:08:40.764Z,100518.25
2023-02-02T20:12:44.918Z,100521.25
2023-02-02T20:16:49.406Z,100530.41
2023-02-02T20:20:54.668Z,100521.22
2023-02-02T20:25:00.548Z,100529.97
2023-02-02T20:29:16.479Z,100534.94
2023-02-02T20:33:25.797Z,100531.78
2023-02-02T20:37:30.876Z,100542.47
2023-02-02T20:41:35.850Z,100534.22
2023-02-02T20:45:39.473Z,100537.41
2023-02-02T20:49:42.749Z,100533.41
2023-02-02T20:53:49.520Z,100539.78
2023-02-02T20:57:54.339Z,100534.41
2023-02-02T21:01:57.817Z,100537.94
2023-02-02T21:06:02.684Z,100538.56
2023-02-02T21:10:06.763Z,100540.09
2023-02-02T21:14:11.876Z,100538.22
2023-02-02T21:18:19.264Z,100535.41
2023-02-02T21:22:25.418Z,100543.75
2023-02-02T21:26:30.874Z,100538.28
2023-02-02T21:30:36.262Z,100539.16
2023-02-02T21:34:39.761Z,100530.59
2023-02-02T21:38:43.185Z,100544.44
2023-02-02T21:42:50.597Z,100537.94
2023-02-02T21:46:55.509Z,100542.19
2023-02-02T21:51:16.794Z,100539.19
2023-02-02T21:55:35.682Z,100542.28
2023-02-02T21:59:39.386Z,100537.41
2023-02-02T22:03:47.163Z,100534.56
2023-02-02T22:07:53.660Z,100525.31
2023-02-02T22:11:59.489Z,100521.44
2023-02-02T22:16:03.901Z,100518.63
2023-02-02T22:20:20.057Z,100525.69
2023-02-02T22:24:23.570Z,100530.56
2023-02-02T22:28:27.730Z,100537.88
2023-02-02T22:32:31.019Z,100549.03
2023-02-02T22:36:36.977Z,100529.38
2023-02-02T22:40:40.328Z,100535.88
2023-02-02T22:44:44.524Z,100542.34
2023-02-02T22:48:47.596Z,100542.38
2023-02-02T22:52:52.947Z,100549.22
2023-02-02T22:56:56.358Z,100561.16
2023-02-02T23:00:59.699Z,100561.53
2023-02-02T23:05:03.192Z,100558.22
2023-02-02T23:09:07.952Z,100562.72
2023-02-02T23:13:11.263Z,100567.63
2023-02-02T23:17:17.156Z,100568.00
2023-02-02T23:21:21.455Z,100548.34
2023-02-02T23:25:26.330Z,100558.91
2023-02-02T23:29:29.688Z,100554.84
2023-02-02T23:33:32.949Z,100549.34
2023-02-02T23:37:36.305Z,100533.03
2023-02-02T23:41:40.897Z,100555.03
2023-02-02T23:45:44.108Z,100553.28
2023-02-02T23:49:47.831Z,100552.78
2023-02-02T23:53:51.427Z,100533.94
2023-02-02T23:57:55.588Z,100550.72
